SWA2422 KHOU-KSTL
Flight info
| Callsign | SWA2422 |
|---|---|
| Flight time | 1h 42m |
| Altitude | 39000 |
| Route | INDIE8 TPAKK LIT ARG BOOSH3 |
| Aircraft | B738/M-SADE2E3GIJ4RWZ/LB1D1 |
Departure
| Time | 2026-05-04 01:31 |
|---|---|
| Airport | William P. Hobby Airport (KHOU) |
Arrival
| Time | 2026-05-04 03:13 |
|---|---|
| Airport | St. Louis Lambert International Airport (KSTL) |
| Time | Latitude | Longitude | Altitude | Speed | Heading |
|---|---|---|---|---|---|
| 2026-05-04 01:00 | 29.65221 | -95.27535 | 51 ft | 0 kts | 22° |
| 2026-05-04 01:23 | 29.65205 | -95.27543 | 49 ft | 4 kts | 22° |
| 2026-05-04 01:23 | 29.65180 | -95.27555 | 49 ft | 4 kts | 22° |
| 2026-05-04 01:24 | 29.65161 | -95.27563 | 51 ft | 4 kts | 353° |
| 2026-05-04 01:24 | 29.65146 | -95.27551 | 49 ft | 4 kts | 273° |
| 2026-05-04 01:24 | 29.65147 | -95.27524 | 48 ft | 1 kts | 269° |
| 2026-05-04 01:27 | 29.65145 | -95.27594 | 51 ft | 15 kts | 268° |
| 2026-05-04 01:27 | 29.65143 | -95.27724 | 51 ft | 17 kts | 269° |
| 2026-05-04 01:27 | 29.65144 | -95.27855 | 51 ft | 13 kts | 283° |
| 2026-05-04 01:28 | 29.65202 | -95.27940 | 51 ft | 14 kts | 314° |
| 2026-05-04 01:28 | 29.65273 | -95.28025 | 51 ft | 15 kts | 315° |
| 2026-05-04 01:28 | 29.65323 | -95.28085 | 51 ft | 16 kts | 313° |
| 2026-05-04 01:28 | 29.65337 | -95.28167 | 51 ft | 10 kts | 254° |
| 2026-05-04 01:29 | 29.65311 | -95.28256 | 49 ft | 16 kts | 252° |
| 2026-05-04 01:29 | 29.65252 | -95.28376 | 51 ft | 19 kts | 227° |
| 2026-05-04 01:29 | 29.65222 | -95.28515 | 51 ft | 18 kts | 260° |
| 2026-05-04 01:29 | 29.65135 | -95.28563 | 51 ft | 14 kts | 180° |
| 2026-05-04 01:30 | 29.65058 | -95.28509 | 51 ft | 14 kts | 133° |
| 2026-05-04 01:30 | 29.64883 | -95.28301 | 49 ft | 72 kts | 134° |
| 2026-05-04 01:30 | 29.64366 | -95.27688 | 52 ft | 139 kts | 135° |
| 2026-05-04 01:30 | 29.63639 | -95.26771 | 489 ft | 163 kts | 129° |
| 2026-05-04 01:31 | 29.63100 | -95.25632 | 1406 ft | 165 kts | 105° |
| 2026-05-04 01:31 | 29.63204 | -95.24230 | 1883 ft | 199 kts | 68° |
| 2026-05-04 01:31 | 29.64163 | -95.22910 | 2118 ft | 233 kts | 34° |
| 2026-05-04 01:31 | 29.65790 | -95.22293 | 2331 ft | 267 kts | 6° |
| 2026-05-04 01:32 | 29.67667 | -95.22073 | 3198 ft | 265 kts | 7° |
| 2026-05-04 01:32 | 29.69444 | -95.21840 | 4511 ft | 253 kts | 6° |
| 2026-05-04 01:32 | 29.71202 | -95.21656 | 5369 ft | 258 kts | 8° |
| 2026-05-04 01:32 | 29.73036 | -95.21362 | 5994 ft | 270 kts | 8° |
| 2026-05-04 01:33 | 29.74899 | -95.21048 | 6893 ft | 272 kts | 7° |
| 2026-05-04 01:33 | 29.76792 | -95.20728 | 7593 ft | 279 kts | 7° |
| 2026-05-04 01:33 | 29.78731 | -95.20396 | 8369 ft | 283 kts | 7° |
| 2026-05-04 01:33 | 29.80690 | -95.20049 | 9182 ft | 287 kts | 7° |
| 2026-05-04 01:34 | 29.82680 | -95.19704 | 9955 ft | 292 kts | 6° |
| 2026-05-04 01:34 | 29.84725 | -95.19355 | 10439 ft | 307 kts | 6° |
| 2026-05-04 01:34 | 29.86924 | -95.18989 | 10609 ft | 332 kts | 6° |
| 2026-05-04 01:34 | 29.89289 | -95.18601 | 10782 ft | 354 kts | 6° |
| 2026-05-04 01:35 | 29.91796 | -95.18195 | 11016 ft | 372 kts | 6° |
| 2026-05-04 01:35 | 29.94387 | -95.17776 | 11540 ft | 379 kts | 6° |
| 2026-05-04 01:35 | 29.97007 | -95.17353 | 12208 ft | 382 kts | 6° |
| 2026-05-04 01:35 | 29.99642 | -95.16929 | 12906 ft | 384 kts | 6° |
| 2026-05-04 01:36 | 30.02305 | -95.16501 | 13578 ft | 388 kts | 6° |
| 2026-05-04 01:36 | 30.04994 | -95.16070 | 14189 ft | 393 kts | 6° |
| 2026-05-04 01:36 | 30.07709 | -95.15634 | 14844 ft | 395 kts | 5° |
| 2026-05-04 01:36 | 30.10432 | -95.15197 | 15553 ft | 395 kts | 5° |
| 2026-05-04 01:37 | 30.13162 | -95.14759 | 16245 ft | 397 kts | 5° |
| 2026-05-04 01:37 | 30.15868 | -95.14325 | 16900 ft | 399 kts | 4° |
| 2026-05-04 01:37 | 30.18661 | -95.13876 | 17525 ft | 402 kts | 4° |
| 2026-05-04 01:37 | 30.21441 | -95.13430 | 18145 ft | 404 kts | 4° |
| 2026-05-04 01:38 | 30.24232 | -95.12981 | 18702 ft | 406 kts | 4° |
| 2026-05-04 01:38 | 30.27043 | -95.12528 | 19211 ft | 409 kts | 3° |
| 2026-05-04 01:38 | 30.29871 | -95.12073 | 19704 ft | 412 kts | 3° |
| 2026-05-04 01:38 | 30.32681 | -95.11620 | 20182 ft | 415 kts | 3° |
| 2026-05-04 01:39 | 30.35556 | -95.11157 | 20654 ft | 419 kts | 3° |
| 2026-05-04 01:39 | 30.38488 | -95.10683 | 21150 ft | 421 kts | 3° |
| 2026-05-04 01:39 | 30.41399 | -95.10211 | 21641 ft | 424 kts | 2° |
| 2026-05-04 01:39 | 30.44329 | -95.09736 | 22108 ft | 427 kts | 2° |
| 2026-05-04 01:40 | 30.47279 | -95.09257 | 22565 ft | 430 kts | 2° |
| 2026-05-04 01:40 | 30.50248 | -95.08774 | 22998 ft | 433 kts | 2° |
| 2026-05-04 01:40 | 30.53240 | -95.08289 | 23436 ft | 435 kts | 2° |
| 2026-05-04 01:40 | 30.56211 | -95.07803 | 23823 ft | 439 kts | 3° |
| 2026-05-04 01:41 | 30.59211 | -95.06965 | 24171 ft | 448 kts | 12° |
| 2026-05-04 01:41 | 30.62114 | -95.05565 | 24561 ft | 458 kts | 21° |
| 2026-05-04 01:41 | 30.64913 | -95.03765 | 24937 ft | 461 kts | 23° |
| 2026-05-04 01:41 | 30.67712 | -95.01921 | 25271 ft | 464 kts | 23° |
| 2026-05-04 01:42 | 30.70527 | -95.00067 | 25594 ft | 467 kts | 22° |
| 2026-05-04 01:42 | 30.73362 | -94.98210 | 25918 ft | 469 kts | 22° |
| 2026-05-04 01:42 | 30.76217 | -94.96355 | 26242 ft | 471 kts | 22° |
| 2026-05-04 01:42 | 30.79084 | -94.94499 | 26595 ft | 472 kts | 21° |
| 2026-05-04 01:43 | 30.81950 | -94.92647 | 27017 ft | 471 kts | 21° |
| 2026-05-04 01:43 | 30.84821 | -94.90794 | 27355 ft | 473 kts | 21° |
| 2026-05-04 01:43 | 30.87702 | -94.88935 | 27668 ft | 475 kts | 21° |
| 2026-05-04 01:43 | 30.90587 | -94.87070 | 28063 ft | 474 kts | 20° |
| 2026-05-04 01:44 | 30.93463 | -94.85208 | 28496 ft | 472 kts | 20° |
| 2026-05-04 01:44 | 30.96330 | -94.83351 | 28951 ft | 470 kts | 20° |
| 2026-05-04 01:44 | 30.99182 | -94.81501 | 29438 ft | 468 kts | 20° |
| 2026-05-04 01:44 | 31.02024 | -94.79658 | 29930 ft | 466 kts | 19° |
| 2026-05-04 01:45 | 31.04851 | -94.77824 | 30365 ft | 465 kts | 19° |
| 2026-05-04 01:45 | 31.07675 | -94.75991 | 30715 ft | 464 kts | 19° |
| 2026-05-04 01:45 | 31.13324 | -94.72322 | 31364 ft | 465 kts | 19° |
| 2026-05-04 01:46 | 31.16151 | -94.70483 | 31754 ft | 465 kts | 18° |
| 2026-05-04 01:46 | 31.18967 | -94.68649 | 32167 ft | 463 kts | 18° |
| 2026-05-04 01:46 | 31.21771 | -94.66822 | 32552 ft | 461 kts | 18° |
| 2026-05-04 01:46 | 31.24576 | -94.64996 | 32863 ft | 462 kts | 18° |
| 2026-05-04 01:47 | 31.27389 | -94.63164 | 33161 ft | 463 kts | 18° |
| 2026-05-04 01:47 | 31.30197 | -94.61332 | 33516 ft | 462 kts | 17° |
| 2026-05-04 01:47 | 31.33001 | -94.59499 | 33889 ft | 461 kts | 17° |
| 2026-05-04 01:47 | 31.35801 | -94.57668 | 34202 ft | 461 kts | 17° |
| 2026-05-04 01:48 | 31.38600 | -94.55836 | 34533 ft | 460 kts | 17° |
| 2026-05-04 01:48 | 31.41379 | -94.54012 | 34933 ft | 457 kts | 17° |
| 2026-05-04 01:48 | 31.44144 | -94.52199 | 35301 ft | 454 kts | 17° |
| 2026-05-04 01:48 | 31.46894 | -94.50397 | 35688 ft | 452 kts | 17° |
| 2026-05-04 01:49 | 31.49632 | -94.48594 | 36047 ft | 451 kts | 17° |
| 2026-05-04 01:49 | 31.52344 | -94.46748 | 36339 ft | 451 kts | 18° |
| 2026-05-04 01:49 | 31.55047 | -94.44868 | 36592 ft | 452 kts | 18° |
| 2026-05-04 01:49 | 31.57745 | -94.42978 | 36855 ft | 452 kts | 18° |
| 2026-05-04 01:50 | 31.60438 | -94.41085 | 37140 ft | 451 kts | 18° |
| 2026-05-04 01:50 | 31.63125 | -94.39199 | 37448 ft | 449 kts | 18° |
| 2026-05-04 01:50 | 31.65801 | -94.37323 | 37735 ft | 448 kts | 18° |
| 2026-05-04 01:50 | 31.68480 | -94.35449 | 37980 ft | 448 kts | 18° |
| 2026-05-04 01:51 | 31.71154 | -94.33581 | 38215 ft | 447 kts | 18° |
| 2026-05-04 01:51 | 31.73826 | -94.31715 | 38518 ft | 447 kts | 18° |
| 2026-05-04 01:51 | 31.76459 | -94.29874 | 38802 ft | 445 kts | 18° |
| 2026-05-04 01:51 | 31.79114 | -94.28015 | 39023 ft | 444 kts | 18° |
| 2026-05-04 01:52 | 31.84451 | -94.24286 | 39111 ft | 449 kts | 18° |
| 2026-05-04 01:52 | 31.89818 | -94.20523 | 39112 ft | 448 kts | 18° |
| 2026-05-04 01:53 | 31.95157 | -94.16769 | 39118 ft | 446 kts | 18° |
| 2026-05-04 01:53 | 32.00471 | -94.13029 | 39110 ft | 444 kts | 18° |
| 2026-05-04 01:54 | 32.05768 | -94.09299 | 39114 ft | 443 kts | 18° |
| 2026-05-04 01:54 | 32.11045 | -94.05579 | 39111 ft | 441 kts | 18° |
| 2026-05-04 01:55 | 32.16309 | -94.01863 | 39105 ft | 441 kts | 18° |
| 2026-05-04 01:55 | 32.21569 | -93.98146 | 39103 ft | 441 kts | 18° |
| 2026-05-04 01:56 | 32.26827 | -93.94425 | 39100 ft | 441 kts | 18° |
| 2026-05-04 01:56 | 32.32098 | -93.90689 | 39105 ft | 443 kts | 18° |
| 2026-05-04 01:57 | 32.37349 | -93.86962 | 39100 ft | 443 kts | 18° |
| 2026-05-04 01:57 | 32.42642 | -93.83198 | 39094 ft | 444 kts | 18° |
| 2026-05-04 01:58 | 32.47944 | -93.79423 | 39102 ft | 445 kts | 18° |
| 2026-05-04 01:58 | 32.53250 | -93.75640 | 39089 ft | 445 kts | 18° |
| 2026-05-04 01:59 | 32.58559 | -93.71849 | 39112 ft | 446 kts | 18° |
| 2026-05-04 01:59 | 32.63868 | -93.68053 | 39100 ft | 445 kts | 18° |
| 2026-05-04 02:00 | 32.69164 | -93.64260 | 39089 ft | 444 kts | 18° |
| 2026-05-04 02:00 | 32.74454 | -93.60467 | 39088 ft | 444 kts | 18° |
| 2026-05-04 02:01 | 32.79728 | -93.56679 | 39088 ft | 443 kts | 18° |
| 2026-05-04 02:01 | 32.84992 | -93.52895 | 39118 ft | 442 kts | 19° |
| 2026-05-04 02:02 | 32.90256 | -93.49104 | 39093 ft | 442 kts | 19° |
| 2026-05-04 02:02 | 32.95510 | -93.45314 | 39087 ft | 442 kts | 19° |
| 2026-05-04 02:03 | 33.00772 | -93.41528 | 39081 ft | 441 kts | 18° |
| 2026-05-04 02:03 | 33.06071 | -93.37885 | 39071 ft | 439 kts | 17° |
| 2026-05-04 02:04 | 33.11384 | -93.34281 | 39102 ft | 440 kts | 17° |
| 2026-05-04 02:04 | 33.16702 | -93.30654 | 39075 ft | 441 kts | 18° |
| 2026-05-04 02:05 | 33.22025 | -93.27000 | 39067 ft | 442 kts | 18° |
| 2026-05-04 02:05 | 33.27361 | -93.23327 | 39064 ft | 443 kts | 18° |
| 2026-05-04 02:06 | 33.32698 | -93.19645 | 39065 ft | 443 kts | 18° |
| 2026-05-04 02:06 | 33.38047 | -93.15951 | 39070 ft | 444 kts | 18° |
| 2026-05-04 02:07 | 33.43359 | -93.12278 | 39067 ft | 444 kts | 18° |
| 2026-05-04 02:07 | 33.48714 | -93.08570 | 39069 ft | 444 kts | 18° |
| 2026-05-04 02:08 | 33.54065 | -93.04859 | 39102 ft | 444 kts | 18° |
| 2026-05-04 02:08 | 33.59420 | -93.01140 | 39079 ft | 445 kts | 18° |
| 2026-05-04 02:09 | 33.64775 | -92.97416 | 39085 ft | 445 kts | 18° |
| 2026-05-04 02:09 | 33.70128 | -92.93688 | 39078 ft | 445 kts | 18° |
| 2026-05-04 02:10 | 33.75480 | -92.89954 | 39069 ft | 445 kts | 18° |
| 2026-05-04 02:10 | 33.80826 | -92.86219 | 39067 ft | 444 kts | 18° |
| 2026-05-04 02:11 | 33.86160 | -92.82487 | 39061 ft | 444 kts | 18° |
| 2026-05-04 02:11 | 33.91498 | -92.78748 | 39064 ft | 444 kts | 18° |
| 2026-05-04 02:12 | 33.96837 | -92.75005 | 39060 ft | 445 kts | 19° |
| 2026-05-04 02:12 | 34.02183 | -92.71248 | 39061 ft | 445 kts | 19° |
| 2026-05-04 02:13 | 34.07535 | -92.67482 | 39069 ft | 446 kts | 19° |
| 2026-05-04 02:13 | 34.12686 | -92.63112 | 39072 ft | 457 kts | 27° |
| 2026-05-04 02:14 | 34.17649 | -92.58346 | 39062 ft | 460 kts | 28° |
| 2026-05-04 02:14 | 34.22658 | -92.53528 | 39060 ft | 460 kts | 28° |
| 2026-05-04 02:15 | 34.27701 | -92.48755 | 39062 ft | 460 kts | 27° |
| 2026-05-04 02:15 | 34.32762 | -92.44006 | 39059 ft | 461 kts | 27° |
| 2026-05-04 02:16 | 34.37005 | -92.40015 | 39055 ft | 461 kts | 28° |
| 2026-05-04 02:16 | 34.42065 | -92.35239 | 39051 ft | 461 kts | 28° |
| 2026-05-04 02:17 | 34.47123 | -92.30452 | 39061 ft | 462 kts | 28° |
| 2026-05-04 02:17 | 34.52188 | -92.25651 | 39044 ft | 462 kts | 28° |
| 2026-05-04 02:18 | 34.57251 | -92.20843 | 39043 ft | 462 kts | 28° |
| 2026-05-04 02:18 | 34.62309 | -92.16032 | 39038 ft | 462 kts | 28° |
| 2026-05-04 02:19 | 34.67362 | -92.11219 | 39037 ft | 461 kts | 28° |
| 2026-05-04 02:19 | 34.72414 | -92.06400 | 39065 ft | 461 kts | 29° |
| 2026-05-04 02:20 | 34.77461 | -92.01577 | 39044 ft | 462 kts | 29° |
| 2026-05-04 02:20 | 34.82508 | -91.96748 | 39032 ft | 462 kts | 29° |
| 2026-05-04 02:21 | 34.87556 | -91.91909 | 39032 ft | 462 kts | 29° |
| 2026-05-04 02:21 | 34.92598 | -91.87068 | 39043 ft | 462 kts | 29° |
| 2026-05-04 02:22 | 34.97645 | -91.82214 | 39038 ft | 462 kts | 29° |
| 2026-05-04 02:22 | 35.02693 | -91.77352 | 39043 ft | 463 kts | 29° |
| 2026-05-04 02:23 | 35.07741 | -91.72482 | 39033 ft | 463 kts | 30° |
| 2026-05-04 02:23 | 35.12753 | -91.67638 | 39045 ft | 462 kts | 30° |
| 2026-05-04 02:24 | 35.17796 | -91.62757 | 39037 ft | 462 kts | 30° |
| 2026-05-04 02:24 | 35.22835 | -91.57871 | 39038 ft | 462 kts | 30° |
| 2026-05-04 02:25 | 35.27875 | -91.52977 | 39045 ft | 463 kts | 30° |
| 2026-05-04 02:25 | 35.32917 | -91.48073 | 39052 ft | 463 kts | 30° |
| 2026-05-04 02:26 | 35.37957 | -91.43163 | 39046 ft | 463 kts | 30° |
| 2026-05-04 02:26 | 35.42992 | -91.38248 | 39051 ft | 462 kts | 30° |
| 2026-05-04 02:27 | 35.48023 | -91.33330 | 39055 ft | 462 kts | 30° |
| 2026-05-04 02:27 | 35.53050 | -91.28409 | 39056 ft | 463 kts | 30° |
| 2026-05-04 02:28 | 35.58076 | -91.23480 | 39060 ft | 462 kts | 30° |
| 2026-05-04 02:28 | 35.63097 | -91.18548 | 39059 ft | 462 kts | 30° |
| 2026-05-04 02:29 | 35.68112 | -91.13612 | 39058 ft | 462 kts | 30° |
| 2026-05-04 02:29 | 35.73124 | -91.08673 | 39052 ft | 461 kts | 30° |
| 2026-05-04 02:30 | 35.78134 | -91.03727 | 39045 ft | 462 kts | 30° |
| 2026-05-04 02:30 | 35.83140 | -90.98776 | 39040 ft | 461 kts | 30° |
| 2026-05-04 02:31 | 35.88143 | -90.93821 | 39029 ft | 461 kts | 30° |
| 2026-05-04 02:31 | 35.93146 | -90.88857 | 39016 ft | 461 kts | 30° |
| 2026-05-04 02:32 | 35.98139 | -90.83894 | 39013 ft | 461 kts | 30° |
| 2026-05-04 02:32 | 36.03130 | -90.78926 | 39010 ft | 461 kts | 30° |
| 2026-05-04 02:33 | 36.08123 | -90.73947 | 39020 ft | 461 kts | 30° |
| 2026-05-04 02:33 | 36.13115 | -90.68961 | 39010 ft | 461 kts | 30° |
| 2026-05-04 02:34 | 36.18104 | -90.63969 | 39010 ft | 461 kts | 30° |
| 2026-05-04 02:34 | 36.23059 | -90.59002 | 39012 ft | 461 kts | 30° |
| 2026-05-04 02:35 | 36.28048 | -90.53995 | 39015 ft | 462 kts | 30° |
| 2026-05-04 02:35 | 36.33038 | -90.48975 | 39016 ft | 462 kts | 30° |
| 2026-05-04 02:36 | 36.38028 | -90.43949 | 39008 ft | 462 kts | 30° |
| 2026-05-04 02:36 | 36.43015 | -90.38916 | 39008 ft | 462 kts | 30° |
| 2026-05-04 02:37 | 36.47998 | -90.33878 | 39004 ft | 462 kts | 31° |
| 2026-05-04 02:37 | 36.52977 | -90.28838 | 39008 ft | 462 kts | 31° |
| 2026-05-04 02:38 | 36.57967 | -90.23777 | 38654 ft | 462 kts | 31° |
| 2026-05-04 02:38 | 36.60442 | -90.21260 | 38375 ft | 458 kts | 30° |
| 2026-05-04 02:38 | 36.62903 | -90.18756 | 38097 ft | 457 kts | 30° |
| 2026-05-04 02:39 | 36.65373 | -90.16244 | 37821 ft | 459 kts | 30° |
| 2026-05-04 02:39 | 36.67847 | -90.13728 | 37550 ft | 460 kts | 30° |
| 2026-05-04 02:39 | 36.70325 | -90.11204 | 37283 ft | 460 kts | 30° |
| 2026-05-04 02:39 | 36.72802 | -90.08679 | 37019 ft | 461 kts | 31° |
| 2026-05-04 02:40 | 36.75280 | -90.06149 | 36779 ft | 461 kts | 30° |
| 2026-05-04 02:40 | 36.77762 | -90.03613 | 36532 ft | 461 kts | 30° |
| 2026-05-04 02:40 | 36.80243 | -90.01074 | 36282 ft | 461 kts | 30° |
| 2026-05-04 02:40 | 36.82723 | -89.98549 | 36040 ft | 460 kts | 30° |
| 2026-05-04 02:41 | 36.85203 | -89.96017 | 35785 ft | 460 kts | 30° |
| 2026-05-04 02:41 | 36.87676 | -89.93484 | 35533 ft | 460 kts | 30° |
| 2026-05-04 02:41 | 36.90146 | -89.90948 | 35271 ft | 459 kts | 30° |
| 2026-05-04 02:41 | 36.92577 | -89.88449 | 35033 ft | 459 kts | 30° |
| 2026-05-04 02:42 | 36.95040 | -89.85914 | 34784 ft | 459 kts | 30° |
| 2026-05-04 02:42 | 36.97505 | -89.83377 | 34549 ft | 459 kts | 30° |
| 2026-05-04 02:42 | 36.99966 | -89.80842 | 34337 ft | 459 kts | 30° |
| 2026-05-04 02:42 | 37.02433 | -89.78298 | 34099 ft | 459 kts | 30° |
| 2026-05-04 02:43 | 37.04895 | -89.75758 | 33356 ft | 460 kts | 30° |
| 2026-05-04 02:43 | 37.07355 | -89.73215 | 32694 ft | 457 kts | 31° |
| 2026-05-04 02:43 | 37.09800 | -89.70684 | 31989 ft | 455 kts | 31° |
| 2026-05-04 02:43 | 37.12244 | -89.68153 | 31261 ft | 458 kts | 31° |
| 2026-05-04 02:44 | 37.14737 | -89.65579 | 30529 ft | 471 kts | 32° |
| 2026-05-04 02:44 | 37.17281 | -89.62951 | 29648 ft | 475 kts | 32° |
| 2026-05-04 02:44 | 37.20004 | -89.60740 | 28690 ft | 458 kts | 15° |
| 2026-05-04 02:44 | 37.23000 | -89.59813 | 28263 ft | 431 kts | 359° |
| 2026-05-04 02:45 | 37.25947 | -89.59768 | 28035 ft | 423 kts | 348° |
| 2026-05-04 02:45 | 37.28850 | -89.60473 | 27757 ft | 428 kts | 336° |
| 2026-05-04 02:45 | 37.31623 | -89.61869 | 27520 ft | 433 kts | 332° |
| 2026-05-04 02:45 | 37.34374 | -89.63423 | 27252 ft | 433 kts | 331° |
| 2026-05-04 02:46 | 37.37106 | -89.64988 | 26983 ft | 430 kts | 331° |
| 2026-05-04 02:46 | 37.39823 | -89.66527 | 26728 ft | 428 kts | 332° |
| 2026-05-04 02:46 | 37.42544 | -89.68043 | 26472 ft | 427 kts | 332° |
| 2026-05-04 02:46 | 37.45268 | -89.69542 | 26218 ft | 427 kts | 332° |
| 2026-05-04 02:47 | 37.47962 | -89.71011 | 25968 ft | 414 kts | 332° |
| 2026-05-04 02:47 | 37.50549 | -89.72420 | 25710 ft | 398 kts | 332° |
| 2026-05-04 02:47 | 37.53045 | -89.73786 | 25455 ft | 385 kts | 332° |
| 2026-05-04 02:47 | 37.55468 | -89.75117 | 25199 ft | 374 kts | 332° |
| 2026-05-04 02:48 | 37.57824 | -89.76413 | 24943 ft | 364 kts | 332° |
| 2026-05-04 02:48 | 37.60117 | -89.77676 | 24701 ft | 356 kts | 332° |
| 2026-05-04 02:48 | 37.62384 | -89.78928 | 24468 ft | 357 kts | 332° |
| 2026-05-04 02:48 | 37.64670 | -89.80192 | 24242 ft | 361 kts | 332° |
| 2026-05-04 02:49 | 37.66976 | -89.81466 | 24005 ft | 362 kts | 332° |
| 2026-05-04 02:49 | 37.69277 | -89.82734 | 23772 ft | 360 kts | 332° |
| 2026-05-04 02:49 | 37.71565 | -89.83995 | 23539 ft | 358 kts | 332° |
| 2026-05-04 02:49 | 37.73847 | -89.85253 | 23284 ft | 357 kts | 332° |
| 2026-05-04 02:50 | 37.76117 | -89.86505 | 23017 ft | 356 kts | 332° |
| 2026-05-04 02:50 | 37.78386 | -89.87757 | 22745 ft | 355 kts | 332° |
| 2026-05-04 02:50 | 37.80648 | -89.89006 | 22480 ft | 354 kts | 332° |
| 2026-05-04 02:50 | 37.82874 | -89.90236 | 22216 ft | 354 kts | 332° |
| 2026-05-04 02:51 | 37.85126 | -89.91485 | 21950 ft | 353 kts | 332° |
| 2026-05-04 02:51 | 37.87374 | -89.92724 | 21685 ft | 352 kts | 332° |
| 2026-05-04 02:51 | 37.89627 | -89.93934 | 21406 ft | 350 kts | 333° |
| 2026-05-04 02:51 | 37.91864 | -89.95128 | 21001 ft | 346 kts | 333° |
| 2026-05-04 02:52 | 37.94068 | -89.96309 | 20547 ft | 342 kts | 332° |
| 2026-05-04 02:52 | 37.96240 | -89.97492 | 20130 ft | 338 kts | 331° |
| 2026-05-04 02:52 | 37.98383 | -89.98697 | 19690 ft | 335 kts | 331° |
| 2026-05-04 02:52 | 38.00502 | -89.99897 | 19245 ft | 332 kts | 331° |
| 2026-05-04 02:53 | 38.02602 | -90.01089 | 18826 ft | 329 kts | 331° |
| 2026-05-04 02:53 | 38.04686 | -90.02270 | 18405 ft | 327 kts | 331° |
| 2026-05-04 02:53 | 38.06755 | -90.03442 | 17951 ft | 324 kts | 331° |
| 2026-05-04 02:53 | 38.08807 | -90.04603 | 17485 ft | 322 kts | 331° |
| 2026-05-04 02:54 | 38.10844 | -90.05756 | 17037 ft | 319 kts | 331° |
| 2026-05-04 02:54 | 38.12857 | -90.06896 | 16631 ft | 316 kts | 331° |
| 2026-05-04 02:54 | 38.14862 | -90.08023 | 16209 ft | 315 kts | 331° |
| 2026-05-04 02:54 | 38.16875 | -90.09149 | 15798 ft | 316 kts | 331° |
| 2026-05-04 02:55 | 38.20887 | -90.11391 | 14972 ft | 312 kts | 331° |
| 2026-05-04 02:55 | 38.22862 | -90.12496 | 14575 ft | 309 kts | 331° |
| 2026-05-04 02:55 | 38.24819 | -90.13593 | 14172 ft | 306 kts | 331° |
| 2026-05-04 02:56 | 38.26762 | -90.14683 | 13775 ft | 304 kts | 331° |
| 2026-05-04 02:56 | 38.28681 | -90.15760 | 13464 ft | 299 kts | 331° |
| 2026-05-04 02:56 | 38.30582 | -90.16827 | 13198 ft | 297 kts | 331° |
| 2026-05-04 02:56 | 38.32471 | -90.17889 | 12896 ft | 299 kts | 331° |
| 2026-05-04 02:57 | 38.34387 | -90.18968 | 12502 ft | 302 kts | 331° |
| 2026-05-04 02:57 | 38.36307 | -90.20047 | 12073 ft | 301 kts | 331° |
| 2026-05-04 02:57 | 38.38214 | -90.21118 | 11645 ft | 299 kts | 330° |
| 2026-05-04 02:57 | 38.40109 | -90.22183 | 11216 ft | 297 kts | 330° |
| 2026-05-04 02:58 | 38.42000 | -90.23247 | 10763 ft | 297 kts | 330° |
| 2026-05-04 02:58 | 38.43867 | -90.24298 | 10557 ft | 289 kts | 330° |
| 2026-05-04 02:58 | 38.45680 | -90.25317 | 10405 ft | 280 kts | 330° |
| 2026-05-04 02:58 | 38.47430 | -90.26302 | 10268 ft | 271 kts | 330° |
| 2026-05-04 02:59 | 38.49123 | -90.27256 | 10145 ft | 262 kts | 329° |
| 2026-05-04 02:59 | 38.50765 | -90.28183 | 10022 ft | 254 kts | 329° |
| 2026-05-04 02:59 | 38.52371 | -90.29091 | 9748 ft | 252 kts | 329° |
| 2026-05-04 02:59 | 38.53970 | -90.29997 | 9458 ft | 251 kts | 329° |
| 2026-05-04 03:00 | 38.55562 | -90.30899 | 9149 ft | 250 kts | 329° |
| 2026-05-04 03:00 | 38.57149 | -90.31798 | 8865 ft | 249 kts | 329° |
| 2026-05-04 03:00 | 38.58726 | -90.32690 | 8585 ft | 247 kts | 329° |
| 2026-05-04 03:00 | 38.60296 | -90.33579 | 8306 ft | 245 kts | 329° |
| 2026-05-04 03:01 | 38.61831 | -90.34446 | 8211 ft | 237 kts | 329° |
| 2026-05-04 03:01 | 38.63321 | -90.35289 | 8071 ft | 230 kts | 328° |
| 2026-05-04 03:01 | 38.64655 | -90.36287 | 7916 ft | 216 kts | 310° |
| 2026-05-04 03:01 | 38.65586 | -90.37758 | 7741 ft | 211 kts | 299° |
| 2026-05-04 03:02 | 38.66366 | -90.39341 | 7498 ft | 209 kts | 297° |
| 2026-05-04 03:02 | 38.67108 | -90.40900 | 7286 ft | 207 kts | 297° |
| 2026-05-04 03:02 | 38.67853 | -90.42462 | 7094 ft | 205 kts | 297° |
| 2026-05-04 03:02 | 38.68599 | -90.44008 | 6885 ft | 203 kts | 297° |
| 2026-05-04 03:03 | 38.69343 | -90.45544 | 6678 ft | 203 kts | 297° |
| 2026-05-04 03:03 | 38.70090 | -90.47086 | 6462 ft | 204 kts | 296° |
| 2026-05-04 03:03 | 38.70840 | -90.48633 | 6243 ft | 205 kts | 296° |
| 2026-05-04 03:03 | 38.71595 | -90.50188 | 6004 ft | 205 kts | 296° |
| 2026-05-04 03:04 | 38.72349 | -90.51741 | 5782 ft | 205 kts | 296° |
| 2026-05-04 03:04 | 38.73102 | -90.53293 | 5559 ft | 205 kts | 296° |
| 2026-05-04 03:04 | 38.73854 | -90.54843 | 5332 ft | 205 kts | 296° |
| 2026-05-04 03:04 | 38.74350 | -90.55866 | 5195 ft | 204 kts | 296° |
| 2026-05-04 03:05 | 38.75092 | -90.57406 | 5060 ft | 201 kts | 295° |
| 2026-05-04 03:05 | 38.76003 | -90.59498 | 4989 ft | 203 kts | 301° |
| 2026-05-04 03:05 | 38.76569 | -90.60453 | 5011 ft | 203 kts | 302° |
| 2026-05-04 03:05 | 38.77425 | -90.61897 | 4999 ft | 204 kts | 301° |
| 2026-05-04 03:06 | 38.78278 | -90.63351 | 4999 ft | 204 kts | 301° |
| 2026-05-04 03:06 | 38.79128 | -90.64807 | 4971 ft | 204 kts | 301° |
| 2026-05-04 03:06 | 38.79977 | -90.66262 | 4963 ft | 203 kts | 301° |
| 2026-05-04 03:06 | 38.80821 | -90.67708 | 4965 ft | 202 kts | 301° |
| 2026-05-04 03:07 | 38.81662 | -90.69145 | 4962 ft | 201 kts | 301° |
| 2026-05-04 03:07 | 38.82670 | -90.70391 | 4951 ft | 211 kts | 329° |
| 2026-05-04 03:07 | 38.84170 | -90.70553 | 4976 ft | 229 kts | 5° |
| 2026-05-04 03:07 | 38.85630 | -90.69557 | 4990 ft | 251 kts | 39° |
| 2026-05-04 03:08 | 38.86583 | -90.67636 | 4968 ft | 263 kts | 71° |
| 2026-05-04 03:08 | 38.86962 | -90.65346 | 4991 ft | 263 kts | 80° |
| 2026-05-04 03:08 | 38.87234 | -90.63022 | 4983 ft | 264 kts | 83° |
| 2026-05-04 03:08 | 38.87070 | -90.60687 | 4709 ft | 269 kts | 116° |
| 2026-05-04 03:09 | 38.86089 | -90.58693 | 4428 ft | 264 kts | 131° |
| 2026-05-04 03:09 | 38.85060 | -90.56738 | 4081 ft | 262 kts | 127° |
| 2026-05-04 03:09 | 38.84114 | -90.54794 | 3747 ft | 252 kts | 126° |
| 2026-05-04 03:09 | 38.83203 | -90.52928 | 3417 ft | 241 kts | 127° |
| 2026-05-04 03:10 | 38.82339 | -90.51171 | 3099 ft | 225 kts | 127° |
| 2026-05-04 03:10 | 38.81527 | -90.49524 | 2838 ft | 213 kts | 128° |
| 2026-05-04 03:10 | 38.80753 | -90.47956 | 2573 ft | 203 kts | 128° |
| 2026-05-04 03:10 | 38.80029 | -90.46485 | 2355 ft | 186 kts | 129° |
| 2026-05-04 03:11 | 38.79365 | -90.45137 | 2086 ft | 172 kts | 129° |
| 2026-05-04 03:11 | 38.78752 | -90.43876 | 1856 ft | 163 kts | 129° |
| 2026-05-04 03:11 | 38.78162 | -90.42658 | 1647 ft | 158 kts | 130° |
| 2026-05-04 03:11 | 38.77571 | -90.41472 | 1455 ft | 158 kts | 128° |
| 2026-05-04 03:12 | 38.76972 | -90.40293 | 1263 ft | 156 kts | 126° |
| 2026-05-04 03:12 | 38.76404 | -90.39134 | 1053 ft | 152 kts | 124° |
| 2026-05-04 03:12 | 38.75855 | -90.37995 | 843 ft | 150 kts | 124° |
| 2026-05-04 03:12 | 38.75301 | -90.36875 | 647 ft | 145 kts | 124° |
| 2026-05-04 03:13 | 38.74795 | -90.35861 | 576 ft | 114 kts | 121° |
| 2026-05-04 03:13 | 38.74487 | -90.35233 | 582 ft | 53 kts | 122° |
| 2026-05-04 03:13 | 38.74388 | -90.35065 | 584 ft | 5 kts | 131° |
| 2026-05-04 03:13 | 38.74316 | -90.34979 | 586 ft | 22 kts | 146° |
| 2026-05-04 03:14 | 38.74203 | -90.34897 | 589 ft | 18 kts | 152° |
| 2026-05-04 03:14 | 38.74100 | -90.34837 | 593 ft | 15 kts | 172° |
| 2026-05-04 03:14 | 38.74016 | -90.34882 | 591 ft | 14 kts | 211° |
| 2026-05-04 03:14 | 38.73924 | -90.34955 | 591 ft | 18 kts | 212° |
| 2026-05-04 03:15 | 38.73818 | -90.35040 | 592 ft | 15 kts | 213° |
| 2026-05-04 03:15 | 38.73813 | -90.35153 | 588 ft | 15 kts | 307° |
| 2026-05-04 03:15 | 38.73841 | -90.35267 | 584 ft | 11 kts | 233° |
| 2026-05-04 03:15 | 38.73777 | -90.35317 | 582 ft | 10 kts | 192° |
| 2026-05-04 03:16 | 38.73723 | -90.35310 | 582 ft | 6 kts | 202° |
| 2026-05-04 03:16 | 38.73692 | -90.35343 | 581 ft | 3 kts | 224° |
| 2026-05-04 03:16 | 38.73690 | -90.35346 | 581 ft | 0 kts | 224° |